Time;durP1;ratioP1;P1;durP2;ratioP2;P2;SDS_P1;SDS_P2;PMS_P1;PMS_P2;Temp;Humidity;BMP_temperature;BMP_pressure;BME280_temperature;BME280_humidity;BME280_pressure;Samples;Min_cycle;Max_cycle;Signal;HPM_P1;HPM_P2
2022/01/20 00:01:59;;;;;;;3.57;1.93;;;;;;;-145.69;97.72;73245.44;5011512;28;20201;-78
2022/01/20 00:04:34;;;;;;;4.60;2.47;;;;;;;-145.69;99.31;73245.44;5011271;28;20236;-79
2022/01/20 00:07:28;;;;;;;3.33;2.20;;;;;;;-145.69;97.82;73245.44;5022650;28;20704;-78
2022/01/20 00:26:53;;;;;;;5.10;2.77;;;;;;;-145.69;98.67;73243.44;5030849;28;20295;-78
2022/01/20 00:29:28;;;;;;;6.10;2.77;;;;;;;-145.69;99.79;73245.44;5030739;28;20294;-78
2022/01/20 00:32:07;;;;;;;6.73;3.27;;;;;;;-145.69;100.00;73249.41;5030686;28;20666;-78
2022/01/20 00:35:12;;;;;;;6.80;2.70;;;;;;;-145.69;100.00;73253.41;5030762;28;20234;-79
2022/01/20 00:37:42;;;;;;;3.93;2.37;;;;;;;-145.69;100.00;73253.41;5014449;28;20554;-78
2022/01/20 00:40:14;;;;;;;6.30;2.70;;;;;;;-145.69;99.97;73255.38;5011700;28;20201;-78
2022/01/20 00:42:41;;;;;;;5.00;2.77;;;;;;;-145.69;100.00;73259.38;5010909;28;20217;-78
2022/01/20 00:45:09;;;;;;;5.63;2.87;;;;;;;-145.69;100.00;73249.41;5012299;28;20279;-78
2022/01/20 00:47:38;;;;;;;6.57;2.77;;;;;;;-145.69;100.00;73257.38;5011054;28;20192;-79
2022/01/20 00:50:08;;;;;;;3.50;2.30;;;;;;;-145.69;100.00;73261.34;5010669;28;20204;-78
2022/01/20 00:52:37;;;;;;;5.30;2.40;;;;;;;-145.69;100.00;73253.41;5010431;28;20205;-78
2022/01/20 00:55:05;;;;;;;5.47;2.73;;;;;;;-145.69;100.00;73267.34;5010748;28;20216;-78
2022/01/20 00:57:34;;;;;;;4.43;2.47;;;;;;;-145.69;100.00;73263.34;5010395;28;20674;-78
2022/01/20 01:00:01;;;;;;;4.03;2.30;;;;;;;-145.69;100.00;73253.41;5010638;28;20209;-78
2022/01/20 01:02:27;;;;;;;4.33;2.60;;;;;;;-145.69;100.00;73253.41;5010556;28;20208;-78
2022/01/20 01:04:54;;;;;;;5.23;2.40;;;;;;;-145.69;100.00;73253.41;5010281;28;20233;-79
2022/01/20 01:07:42;;;;;;;3.33;2.17;;;;;;;-145.69;100.00;73255.38;5024053;28;20196;-79
2022/01/20 01:10:13;;;;;;;4.23;2.50;;;;;;;-145.69;100.00;73259.38;5029756;28;20207;-78
2022/01/20 01:12:47;;;;;;;3.80;2.43;;;;;;;-145.69;100.00;73267.34;5030734;28;20204;-79
2022/01/20 01:15:19;;;;;;;5.77;2.53;;;;;;;-145.69;100.00;73269.31;5030006;28;20208;-78
2022/01/20 01:20:56;;;;;;;5.23;2.57;;;;;;;-145.69;100.00;73269.31;5030123;28;20211;-79
2022/01/20 01:23:25;;;;;;;3.03;2.17;;;;;;;-145.69;100.00;73273.31;5029864;28;20201;-79
2022/01/20 01:25:52;;;;;;;4.57;2.50;;;;;;;-145.69;100.00;73267.34;5029868;28;20232;-79
2022/01/20 01:28:21;;;;;;;3.80;2.43;;;;;;;-145.69;100.00;73269.31;5030116;28;20208;-78
2022/01/20 01:31:11;;;;;;;4.20;2.20;;;;;;;-145.69;100.00;73265.34;5030302;28;20256;-79
2022/01/20 01:33:53;;;;;;;2.90;2.07;;;;;;;-145.69;100.00;73273.31;5029824;28;20232;-78
2022/01/20 01:36:23;;;;;;;4.27;2.30;;;;;;;-145.69;100.00;73269.31;5021397;28;20196;-78
2022/01/20 01:38:51;;;;;;;3.67;2.57;;;;;;;-145.69;100.00;73275.28;5010227;28;20209;-79
2022/01/20 01:41:28;;;;;;;3.33;2.20;;;;;;;-145.69;100.00;73261.34;5010191;28;20204;-79
2022/01/20 01:44:04;;;;;;;3.67;2.03;;;;;;;-145.69;100.00;73267.34;5010178;28;20273;-79
2022/01/20 01:46:34;;;;;;;3.80;2.50;;;;;;;-145.69;100.00;73265.34;5009814;28;20244;-78
2022/01/20 01:49:01;;;;;;;2.80;2.10;;;;;;;-145.69;100.00;73273.31;5010144;28;20201;-78
2022/01/20 01:51:27;;;;;;;2.93;2.03;;;;;;;-145.69;100.00;73277.28;5014042;28;20204;-79
2022/01/20 01:53:56;;;;;;;2.97;1.70;;;;;;;-145.69;100.00;73277.28;5029644;28;20204;-79
2022/01/20 01:56:28;;;;;;;3.53;1.90;;;;;;;-145.69;100.00;73277.28;5029254;28;20658;-79
2022/01/20 01:59:00;;;;;;;2.53;1.80;;;;;;;-145.69;100.00;73277.28;5028952;28;20197;-79
2022/01/20 02:01:28;;;;;;;3.70;2.23;;;;;;;-145.69;100.00;73283.25;5029850;28;20211;-79
2022/01/20 02:04:00;;;;;;;4.13;2.07;;;;;;;-145.69;100.00;73283.25;5029128;28;20766;-79
2022/01/20 02:06:50;;;;;;;3.22;1.90;;;;;;;-145.69;100.00;73271.31;5020788;28;20459;-79
2022/01/20 02:09:36;;;;;;;3.27;2.00;;;;;;;-145.69;100.00;73273.31;5009268;28;20662;-79
2022/01/20 02:17:55;;;;;;;2.83;1.87;;;;;;;-145.69;100.00;73255.38;5009506;28;20313;-79
2022/01/20 02:20:34;;;;;;;2.53;1.70;;;;;;;-145.69;100.00;73247.41;5009533;28;20201;-79
2022/01/20 02:23:05;;;;;;;2.47;1.67;;;;;;;-145.69;100.00;73241.44;5012407;28;20208;-78
2022/01/20 02:25:39;;;;;;;2.97;1.80;;;;;;;-145.69;100.00;73243.44;5012780;28;20243;-78
2022/01/20 02:28:11;;;;;;;2.73;1.80;;;;;;;-145.69;100.00;73245.44;5012875;28;20204;-79
2022/01/20 02:30:39;;;;;;;3.07;1.80;;;;;;;-145.69;100.00;73229.50;5012770;28;20205;-79
2022/01/20 02:33:10;;;;;;;2.53;1.67;;;;;;;-145.69;100.00;73227.50;5012927;28;20212;-79
2022/01/20 02:35:43;;;;;;;2.30;1.50;;;;;;;-145.69;100.00;73237.47;5016829;28;20196;-79
2022/01/20 02:38:16;;;;;;;2.33;1.57;;;;;;;-145.69;100.00;73229.50;5032665;28;20223;-79
2022/01/20 02:46:16;;;;;;;2.67;1.50;;;;;;;-145.69;100.00;73219.56;5032228;28;20231;-78
2022/01/20 02:48:48;;;;;;;2.50;1.30;;;;;;;-145.69;100.00;73223.53;5031593;28;20207;-79
2022/01/20 02:51:17;;;;;;;2.13;1.60;;;;;;;-145.69;100.00;73233.50;5028744;28;20612;-79
2022/01/20 02:53:49;;;;;;;3.20;1.60;;;;;;;-145.69;100.00;73231.50;5032451;28;20231;-78
2022/01/20 02:56:16;;;;;;;2.03;1.33;;;;;;;-145.69;100.00;73245.44;5032349;28;20211;-79
2022/01/20 02:58:42;;;;;;;2.77;1.53;;;;;;;-145.69;100.00;73251.41;5032193;28;20229;-79
2022/01/20 03:01:09;;;;;;;2.53;1.50;;;;;;;-145.69;100.00;73257.38;5032124;28;20320;-79
2022/01/20 03:03:37;;;;;;;1.87;1.20;;;;;;;-145.69;100.00;73253.41;5031989;28;20207;-79
2022/01/20 03:06:04;;;;;;;1.23;1.13;;;;;;;-145.69;100.00;73249.41;5023757;28;20304;-79
2022/01/20 03:08:33;;;;;;;1.73;1.43;;;;;;;-145.69;100.00;73255.38;5012574;28;20201;-79
2022/01/20 03:11:00;;;;;;;2.27;1.67;;;;;;;-145.69;100.00;73257.38;5012300;28;20281;-79
2022/01/20 03:13:27;;;;;;;2.40;1.77;;;;;;;-145.69;100.00;73261.34;5011697;28;20571;-79
2022/01/20 03:15:53;;;;;;;2.40;1.40;;;;;;;-145.69;100.00;73263.34;5012337;28;20241;-79
2022/01/20 03:18:24;;;;;;;2.73;1.40;;;;;;;-145.69;100.00;73261.34;5011792;28;20232;-79
2022/01/20 03:20:51;;;;;;;2.80;1.47;;;;;;;-145.69;100.00;73249.41;5012060;28;20675;-79
2022/01/20 03:23:17;;;;;;;1.43;1.33;;;;;;;-145.69;100.00;73253.41;5012133;28;20208;-79
2022/01/20 03:25:45;;;;;;;2.87;1.60;;;;;;;-145.69;100.00;73245.44;5013408;28;20224;-79
2022/01/20 03:28:14;;;;;;;1.83;1.30;;;;;;;-145.69;100.00;73249.41;5012140;28;20342;-79
2022/01/20 03:30:40;;;;;;;2.80;1.60;;;;;;;-145.69;100.00;73247.41;5011913;28;20246;-79
2022/01/20 03:33:07;;;;;;;2.17;1.57;;;;;;;-145.69;100.00;73249.41;5012047;28;20204;-79
2022/01/20 03:35:35;;;;;;;2.33;1.77;;;;;;;-145.69;100.00;73249.41;5015156;28;20192;-79
2022/01/20 03:38:04;;;;;;;2.97;1.60;;;;;;;-145.69;100.00;73255.38;5031689;28;20208;-79
2022/01/20 03:40:34;;;;;;;2.10;1.40;;;;;;;-145.69;100.00;73257.38;5031607;28;20208;-79
2022/01/20 03:43:01;;;;;;;2.23;1.60;;;;;;;-145.69;100.00;73265.34;5031517;28;20200;-79
2022/01/20 03:45:32;;;;;;;1.43;1.23;;;;;;;-145.69;100.00;73263.34;5031246;28;20224;-79
2022/01/20 03:48:09;;;;;;;2.87;1.73;;;;;;;-145.69;100.00;73267.34;5031508;28;20208;-78
2022/01/20 03:53:23;;;;;;;2.47;1.70;;;;;;;-145.69;100.00;73265.34;5031389;28;20207;-78
2022/01/20 03:55:54;;;;;;;1.73;1.60;;;;;;;-145.69;100.00;73261.34;5030630;28;20200;-79
2022/01/20 03:58:23;;;;;;;2.30;1.87;;;;;;;-145.69;100.00;73269.31;5031386;28;20196;-79
2022/01/20 04:00:54;;;;;;;3.30;1.93;;;;;;;-145.69;100.00;73269.31;5031236;28;20204;-78
2022/01/20 04:03:24;;;;;;;2.90;1.80;;;;;;;-145.69;100.00;73273.31;5031275;28;20208;-78
2022/01/20 04:06:00;;;;;;;2.07;1.50;;;;;;;-145.69;100.00;73273.31;5025416;28;20220;-79
2022/01/20 04:08:37;;;;;;;2.17;1.90;;;;;;;-145.69;100.00;73273.31;5011279;28;20205;-80
2022/01/20 04:11:07;;;;;;;3.60;1.90;;;;;;;-145.69;100.00;73275.28;5011751;28;20208;-79
2022/01/20 04:13:36;;;;;;;3.07;1.90;;;;;;;-145.69;100.00;73287.25;5011584;28;20682;-78
2022/01/20 04:16:12;;;;;;;2.70;1.73;;;;;;;-145.69;100.00;73281.25;5011248;28;20663;-78
2022/01/20 04:18:38;;;;;;;2.77;1.70;;;;;;;-145.69;100.00;73279.28;5011166;28;20301;-79
2022/01/20 04:21:05;;;;;;;1.73;1.40;;;;;;;-145.69;100.00;73273.31;5011227;28;20217;-79
2022/01/20 04:23:31;;;;;;;2.50;1.77;;;;;;;-145.69;100.00;73273.31;5011366;28;20211;-78
2022/01/20 04:25:59;;;;;;;3.53;1.87;;;;;;;-145.69;100.00;73277.28;5011214;28;20228;-79
2022/01/20 04:28:28;;;;;;;2.70;1.87;;;;;;;-145.69;100.00;73279.28;5011176;28;20209;-79
2022/01/20 04:30:58;;;;;;;2.83;1.60;;;;;;;-145.69;100.00;73285.25;5010805;28;20677;-80
2022/01/20 04:33:24;;;;;;;3.27;1.53;;;;;;;-145.69;100.00;73289.22;5010880;28;20201;-79
2022/01/20 04:35:51;;;;;;;3.43;1.63;;;;;;;-145.69;100.00;73285.25;5015694;28;20682;-79
2022/01/20 04:38:23;;;;;;;3.13;1.63;;;;;;;-145.69;100.00;73283.25;5030820;28;20204;-80
2022/01/20 04:40:49;;;;;;;2.77;1.70;;;;;;;-145.69;100.00;73289.22;5030569;28;20283;-79
2022/01/20 04:43:17;;;;;;;1.70;1.40;;;;;;;-145.69;100.00;73291.22;5030622;28;20211;-79
2022/01/20 04:45:57;;;;;;;2.53;1.70;;;;;;;-145.69;100.00;73305.16;5026158;28;20232;-79
2022/01/20 04:48:31;;;;;;;4.53;1.73;;;;;;;-145.69;100.00;73297.19;5030598;28;20204;-80
2022/01/20 04:59:13;;;;;;;2.83;1.73;;;;;;;-145.69;100.00;73317.09;5030332;28;20255;-79
2022/01/20 05:01:44;;;;;;;2.77;1.90;;;;;;;-145.69;100.00;73311.13;5030184;28;20200;-80
2022/01/20 05:04:12;;;;;;;3.73;2.07;;;;;;;-145.69;100.00;73307.16;5030416;28;20219;-80
2022/01/20 05:06:46;;;;;;;3.47;2.13;;;;;;;-145.69;100.00;73323.06;5015695;28;20825;-80
2022/01/20 05:09:18;;;;;;;4.10;2.00;;;;;;;-145.69;100.00;73325.06;5029404;28;20257;-79
2022/01/20 05:11:57;;;;;;;5.60;2.50;;;;;;;-145.69;100.00;73321.09;5030058;28;20212;-80
2022/01/20 05:14:23;;;;;;;2.20;1.80;;;;;;;-145.69;100.00;73323.06;5030054;28;20686;-80
2022/01/20 05:16:55;;;;;;;5.57;2.30;;;;;;;-145.69;100.00;73321.09;5030132;28;20669;-80
2022/01/20 05:19:24;;;;;;;2.77;1.90;;;;;;;-145.69;100.00;73325.06;5029948;28;20590;-80
2022/01/20 05:21:51;;;;;;;3.43;2.00;;;;;;;-145.69;100.00;73319.09;5030333;28;20204;-80
2022/01/20 05:24:17;;;;;;;4.37;2.30;;;;;;;-145.69;100.00;73317.09;5030241;28;20208;-79
2022/01/20 05:26:44;;;;;;;4.23;2.50;;;;;;;-145.69;100.00;73311.13;5030017;28;20232;-79
2022/01/20 05:29:13;;;;;;;3.90;2.37;;;;;;;-145.69;100.00;73313.13;5030057;28;20208;-81
2022/01/20 05:31:42;;;;;;;2.77;2.10;;;;;;;-145.69;100.00;73317.09;5029790;28;20218;-80
2022/01/20 05:34:12;;;;;;;2.93;1.97;;;;;;;-145.69;100.00;73313.13;5030119;28;20260;-80
2022/01/20 05:36:44;;;;;;;2.93;1.97;;;;;;;-145.69;100.00;73315.13;5015806;28;20219;-79
2022/01/20 05:39:10;;;;;;;3.60;2.10;;;;;;;-145.69;100.00;73317.09;5010224;28;20291;-80
2022/01/20 05:41:37;;;;;;;3.33;2.03;;;;;;;-145.69;100.00;73315.13;5010200;28;20228;-79
2022/01/20 05:44:04;;;;;;;2.97;1.93;;;;;;;-145.69;100.00;73319.09;5009924;28;20208;-80
2022/01/20 05:46:36;;;;;;;4.73;2.40;;;;;;;-145.69;100.00;73321.09;5010063;28;20236;-79
2022/01/20 05:49:08;;;;;;;3.57;2.00;;;;;;;-145.69;100.00;73317.09;5010025;28;20651;-79
2022/01/20 05:51:39;;;;;;;2.93;1.93;;;;;;;-145.69;100.00;73325.06;5010026;28;20290;-79
2022/01/20 05:54:09;;;;;;;5.00;2.17;;;;;;;-145.69;100.00;73327.06;5009763;28;20700;-79
2022/01/20 05:56:40;;;;;;;2.73;1.70;;;;;;;-145.69;100.00;73329.03;5012021;28;20559;-79
2022/01/20 05:59:10;;;;;;;3.80;2.00;;;;;;;-145.69;100.00;73333.03;5013358;28;20201;-80
2022/01/20 06:01:40;;;;;;;5.77;1.70;;;;;;;-145.69;100.00;73337.00;5013659;28;20556;-79
2022/01/20 06:04:10;;;;;;;2.93;1.67;;;;;;;-145.69;100.00;73344.97;5013397;28;20204;-79
2022/01/20 06:06:41;;;;;;;3.83;2.43;;;;;;;-145.69;100.00;73344.97;5026176;28;20219;-80
2022/01/20 06:09:12;;;;;;;5.17;1.80;;;;;;;-145.69;100.00;73344.97;5032610;28;20204;-79
2022/01/20 06:11:38;;;;;;;3.30;2.00;;;;;;;-145.69;100.00;73341.00;5032657;28;20252;-80
2022/01/20 06:14:14;;;;;;;3.10;1.97;;;;;;;-145.69;100.00;73344.97;5032730;28;20659;-79
2022/01/20 06:16:46;;;;;;;4.10;2.83;;;;;;;-145.69;100.00;73344.97;5032914;28;20239;-79
2022/01/20 06:19:15;;;;;;;3.30;2.17;;;;;;;-145.69;100.00;73348.97;5032627;28;20591;-80
2022/01/20 06:21:42;;;;;;;3.40;1.77;;;;;;;-145.69;100.00;73360.91;5032594;28;20203;-80
2022/01/20 06:24:10;;;;;;;2.93;1.83;;;;;;;-145.69;100.00;73352.94;5032793;28;20200;-81
2022/01/20 06:26:36;;;;;;;2.37;1.50;;;;;;;-145.69;100.00;73350.94;5032591;28;20226;-81
2022/01/20 06:29:03;;;;;;;2.57;1.90;;;;;;;-145.69;100.00;73344.97;5032063;28;20211;-80
2022/01/20 06:31:30;;;;;;;4.67;1.90;;;;;;;-145.69;100.00;73344.97;5032639;28;20224;-80
2022/01/20 06:33:57;;;;;;;3.20;2.00;;;;;;;-145.69;100.00;73344.97;5032500;28;20204;-80
2022/01/20 06:36:23;;;;;;;3.47;2.40;;;;;;;-145.69;100.00;73356.91;5030818;28;20208;-80
2022/01/20 06:38:50;;;;;;;4.70;2.70;;;;;;;-145.69;100.00;73362.88;5032614;28;20204;-80
2022/01/20 06:41:18;;;;;;;4.57;2.40;;;;;;;-145.69;100.00;73358.91;5028875;28;20666;-80
2022/01/20 06:43:44;;;;;;;3.07;1.83;;;;;;;-145.69;100.00;73360.91;5032407;28;20237;-80
2022/01/20 06:46:19;;;;;;;3.73;2.50;;;;;;;-145.69;100.00;73356.91;5032313;28;20627;-80
2022/01/20 06:48:47;;;;;;;5.53;2.83;;;;;;;-145.69;100.00;73364.88;5032241;28;20203;-80
2022/01/20 06:51:17;;;;;;;4.33;2.70;;;;;;;-145.69;100.00;73368.88;5032351;28;20205;-80
2022/01/20 06:53:43;;;;;;;4.87;3.27;;;;;;;-145.69;100.00;73372.84;5032156;28;20216;-79
2022/01/20 06:56:12;;;;;;;6.27;3.53;;;;;;;-145.69;100.00;73378.81;5032269;28;20200;-80
2022/01/20 06:58:40;;;;;;;9.23;4.43;;;;;;;-145.69;100.00;73380.81;5031998;28;20204;-79
2022/01/20 07:01:06;;;;;;;6.70;4.07;;;;;;;-145.69;100.00;73372.84;5031972;28;20209;-79
2022/01/20 07:03:33;;;;;;;8.67;4.53;;;;;;;-145.69;100.00;73368.88;5032231;28;20208;-79
2022/01/20 07:06:02;;;;;;;5.70;3.90;;;;;;;-145.69;100.00;73364.88;5021434;28;20193;-79
2022/01/20 07:08:29;;;;;;;9.20;4.43;;;;;;;-145.69;100.00;73370.84;5011682;28;20232;-79
2022/01/20 07:10:55;;;;;;;6.00;3.90;;;;;;;-145.69;100.00;73364.88;5012354;28;20204;-79
2022/01/20 07:13:22;;;;;;;9.17;3.83;;;;;;;-145.69;100.00;73372.84;5012240;28;20197;-79
2022/01/20 07:15:54;;;;;;;8.33;4.57;;;;;;;-145.69;100.00;73368.88;5011988;28;20212;-79
2022/01/20 07:18:20;;;;;;;5.70;3.50;;;;;;;-145.69;100.00;73378.81;5011723;28;20286;-79
2022/01/20 07:20:48;;;;;;;6.83;3.83;;;;;;;-145.69;100.00;73378.81;5012116;28;20207;-79
2022/01/20 07:23:15;;;;;;;5.90;3.90;;;;;;;-145.69;100.00;73384.78;5012188;28;20201;-79
2022/01/20 07:25:44;;;;;;;6.73;3.87;;;;;;;-145.69;100.00;73390.75;5011974;28;20201;-79
2022/01/20 07:28:10;;;;;;;5.27;3.20;;;;;;;-145.69;100.00;73380.81;5012072;28;20255;-79
2022/01/20 07:30:38;;;;;;;5.77;3.30;;;;;;;-145.69;100.00;73382.81;5011767;28;20682;-79
2022/01/20 07:33:07;;;;;;;5.97;3.73;;;;;;;-145.69;100.00;73384.78;5012005;28;20205;-79
2022/01/20 07:35:35;;;;;;;8.10;3.80;;;;;;;-145.69;100.00;73392.75;5020817;28;20207;-79
2022/01/20 07:38:01;;;;;;;5.93;3.90;;;;;;;-145.69;100.00;73390.75;5031564;28;20208;-80
2022/01/20 07:40:32;;;;;;;7.27;3.37;;;;;;;-145.69;100.00;73382.81;5031316;28;20667;-80
2022/01/20 07:42:58;;;;;;;6.90;3.93;;;;;;;-145.69;100.00;73380.81;5031465;28;20200;-80
2022/01/20 07:45:25;;;;;;;6.93;4.03;;;;;;;-145.69;100.00;73392.75;5031512;28;20578;-80
2022/01/20 07:47:52;;;;;;;5.97;3.43;;;;;;;-145.69;100.00;73392.75;5031625;28;20228;-80
2022/01/20 07:50:20;;;;;;;8.13;4.30;;;;;;;-145.69;100.00;73400.72;5031228;28;20660;-80
2022/01/20 07:52:47;;;;;;;6.83;4.40;;;;;;;-145.69;100.00;73392.75;5031306;28;20200;-80
2022/01/20 07:55:17;;;;;;;7.77;3.73;;;;;;;-145.69;100.00;73400.72;5031201;28;20212;-80
2022/01/20 07:57:43;;;;;;;8.50;3.90;;;;;;;-145.69;100.00;73392.75;5031196;28;20200;-79
2022/01/20 08:00:11;;;;;;;6.17;3.77;;;;;;;-145.69;100.00;73394.75;5031447;28;20196;-80
2022/01/20 08:02:46;;;;;;;7.20;3.50;;;;;;;-145.69;100.00;73408.69;5031110;28;20204;-79
2022/01/20 08:05:13;;;;;;;5.30;3.33;;;;;;;-145.69;100.00;73416.66;5024493;28;20716;-79
2022/01/20 08:07:41;;;;;;;5.27;3.27;;;;;;;-145.69;100.00;73414.66;5011293;28;20232;-80
2022/01/20 08:10:12;;;;;;;7.77;4.10;;;;;;;-145.69;100.00;73424.59;5011112;28;20200;-80
2022/01/20 08:12:39;;;;;;;9.27;3.63;;;;;;;-145.69;100.00;73430.56;5011475;28;20659;-80
2022/01/20 08:15:09;;;;;;;6.50;3.90;;;;;;;-145.69;100.00;73420.63;5011043;28;20204;-79
2022/01/20 08:17:37;;;;;;;6.73;3.90;;;;;;;-145.69;100.00;73414.66;5011168;28;20285;-80
2022/01/20 08:20:05;;;;;;;7.43;4.07;;;;;;;-145.69;100.00;73408.69;5010168;28;20239;-79
2022/01/20 08:22:37;;;;;;;6.37;3.70;;;;;;;-145.69;100.00;73414.66;5010962;28;20209;-80
2022/01/20 08:25:10;;;;;;;6.53;3.80;;;;;;;-145.69;100.00;73416.66;5011388;28;20201;-79
2022/01/20 08:27:41;;;;;;;5.93;3.67;;;;;;;-145.69;100.00;73416.66;5011126;28;20229;-80
2022/01/20 08:30:10;;;;;;;9.20;4.33;;;;;;;-145.69;100.00;73426.59;5010913;28;20652;-80
2022/01/20 08:32:49;;;;;;;6.13;3.67;;;;;;;-145.69;100.00;73428.59;5011176;28;20636;-80
2022/01/20 08:35:17;;;;;;;5.87;3.23;;;;;;;-145.69;100.00;73432.56;5014065;28;20205;-80
2022/01/20 08:37:45;;;;;;;8.63;3.97;;;;;;;-145.69;100.00;73436.56;5030817;28;20253;-80
2022/01/20 08:40:15;;;;;;;8.80;4.60;;;;;;;-145.69;100.00;73434.56;5030705;28;20200;-81
2022/01/20 08:42:47;;;;;;;9.93;4.50;;;;;;;-145.69;100.00;73428.59;5030510;28;20204;-79
2022/01/20 08:45:17;;;;;;;8.73;4.67;;;;;;;-145.69;100.00;73424.59;5030909;28;20212;-77
2022/01/20 08:47:44;;;;;;;10.37;3.60;;;;;;;-145.69;100.00;73424.59;5030625;28;20228;-81
2022/01/20 08:50:16;;;;;;;7.87;4.00;;;;;;;-145.69;100.00;73424.59;5021776;28;20201;-80
2022/01/20 08:52:46;;;;;;;6.17;3.83;;;;;;;-145.69;100.00;73416.66;5011027;28;20209;-78
2022/01/20 08:55:14;;;;;;;7.63;4.10;;;;;;;-145.69;100.00;73416.66;5010845;28;20197;-80
2022/01/20 08:57:40;;;;;;;9.50;3.57;;;;;;;-145.69;100.00;73404.69;5010513;28;20244;-79
2022/01/20 09:00:09;;;;;;;5.00;3.33;;;;;;;-145.69;100.00;73412.66;5011628;28;20205;-80
2022/01/20 09:02:38;;;;;;;6.80;3.60;;;;;;;-145.69;100.00;73412.66;5010586;28;20663;-80
2022/01/20 09:05:08;;;;;;;10.17;4.47;;;;;;;-145.69;100.00;73424.59;5010417;28;20298;-81
2022/01/20 09:07:34;;;;;;;6.87;3.47;;;;;;;-145.69;100.00;73404.69;5010374;28;20224;-80
2022/01/20 09:10:08;;;;;;;9.20;3.83;;;;;;;-145.69;100.00;73412.66;5010631;28;20209;-80
2022/01/20 09:15:31;;;;;;;6.67;3.50;;;;;;;-145.69;100.00;73430.56;5010517;28;20301;-79
2022/01/20 09:17:59;;;;;;;6.70;3.00;;;;;;;-145.69;100.00;73428.59;5010417;28;20228;-77
2022/01/20 09:20:28;;;;;;;6.90;3.87;;;;;;;-145.69;100.00;73426.59;5019269;28;20226;-79
2022/01/20 09:22:55;;;;;;;7.77;3.57;;;;;;;-145.69;100.00;73418.63;5024945;28;20189;-79
2022/01/20 09:25:25;;;;;;;6.07;3.20;;;;;;;-145.69;100.00;73428.59;5009760;28;20201;-81
2022/01/20 09:27:56;;;;;;;9.83;3.30;;;;;;;-145.69;100.00;73412.66;5021662;28;20237;-76
2022/01/20 09:30:25;;;;;;;4.10;2.63;;;;;;;-145.69;100.00;73406.69;5035196;28;20475;-79
2022/01/20 09:33:11;;;;;;;8.20;2.90;;;;;;;-145.69;100.00;73402.72;5025505;28;20265;-76
2022/01/20 09:35:44;;;;;;;7.83;3.03;;;;;;;-145.69;100.00;73396.72;5048538;28;20191;-76
2022/01/20 09:38:12;;;;;;;7.97;3.17;;;;;;;-145.69;100.00;73380.81;5035480;28;20200;-77
2022/01/20 09:40:40;;;;;;;10.23;2.90;;;;;;;-145.69;100.00;73368.88;5029901;28;20571;-77
2022/01/20 09:43:10;;;;;;;8.77;2.60;;;;;;;-145.69;100.00;73376.81;5029855;28;20203;-78
2022/01/20 09:45:38;;;;;;;7.20;2.77;;;;;;;-145.69;100.00;73350.94;5029630;28;20236;-77
2022/01/20 09:48:06;;;;;;;7.93;2.97;;;;;;;-145.69;100.00;73360.91;5029664;28;20228;-78
2022/01/20 09:50:32;;;;;;;8.13;3.00;;;;;;;-145.69;100.00;73341.00;5029689;28;20249;-79
2022/01/20 09:53:01;;;;;;;9.40;2.97;;;;;;;-145.69;100.00;73329.03;5029956;28;20278;-79
2022/01/20 09:55:30;;;;;;;5.03;2.70;;;;;;;-145.69;100.00;73348.97;5029673;28;20253;-79
2022/01/20 09:57:57;;;;;;;8.97;3.20;;;;;;;-145.69;100.00;73348.97;5029716;28;20204;-79
2022/01/20 10:00:25;;;;;;;5.80;2.70;;;;;;;-145.69;100.00;73392.75;5029487;28;20208;-77
2022/01/20 10:02:56;;;;;;;9.83;3.03;;;;;;;-145.69;100.00;73378.81;5027983;28;20563;-77
2022/01/20 10:05:30;;;;;;;10.23;3.20;;;;;;;-145.69;100.00;73354.94;5029609;28;20229;-77
2022/01/20 10:08:02;;;;;;;10.07;2.60;;;;;;;-145.69;100.00;73376.81;5029282;28;20224;-77
2022/01/20 10:10:40;;;;;;;11.13;3.40;;;;;;;-145.69;100.00;73406.69;5028924;28;20207;-76
2022/01/20 10:13:09;;;;;;;7.10;3.60;;;;;;;-145.69;100.00;73406.69;5029563;28;20204;-77
2022/01/20 10:15:38;;;;;;;9.13;3.30;;;;;;;-145.69;100.00;73396.72;5029433;28;20299;-77
2022/01/20 10:18:06;;;;;;;9.13;2.90;;;;;;;-145.69;100.00;73378.81;5029013;28;20244;-77
2022/01/20 10:20:33;;;;;;;10.60;2.90;;;;;;;-145.69;100.00;73400.72;5029262;28;20558;-76
2022/01/20 10:22:59;;;;;;;10.90;3.63;;;;;;;-145.69;100.00;73394.75;5022686;28;20193;-77
2022/01/20 10:25:26;;;;;;;10.47;3.10;;;;;;;-145.69;100.00;73396.72;5009651;28;20215;-77
2022/01/20 10:27:54;;;;;;;13.03;3.63;;;;;;;-145.69;100.00;73388.78;5009779;28;20263;-77
2022/01/20 10:30:24;;;;;;;12.93;4.70;;;;;;;-145.69;100.00;73366.88;5009428;28;20201;-77
2022/01/20 10:32:53;;;;;;;17.37;4.70;;;;;;;-145.69;100.00;73348.97;5009576;28;20201;-77
2022/01/20 10:35:25;;;;;;;9.33;3.03;;;;;;;-145.69;100.00;73382.81;5009499;28;20212;-77
2022/01/20 10:37:59;;;;;;;14.27;5.00;;;;;;;-145.69;100.00;73360.91;5009440;28;20213;-77
2022/01/20 10:40:27;;;;;;;9.53;4.03;;;;;;;-145.69;100.00;73364.88;5009299;28;20205;-77
2022/01/20 10:42:54;;;;;;;13.27;3.80;;;;;;;-145.69;100.00;73386.78;5012988;28;20201;-77
2022/01/20 10:45:23;;;;;;;8.30;3.20;;;;;;;-145.69;100.00;73388.78;5012653;28;20582;-77
2022/01/20 10:47:53;;;;;;;13.23;4.07;;;;;;;-145.69;100.00;73384.78;5012564;28;20236;-77
2022/01/20 10:50:23;;;;;;;11.93;3.70;;;;;;;-145.69;100.00;73380.81;5012609;28;20213;-77
2022/01/20 10:52:52;;;;;;;11.17;3.33;;;;;;;-145.69;100.00;73376.81;5017165;28;20197;-77
2022/01/20 10:55:24;;;;;;;29.17;9.43;;;;;;;-145.69;100.00;73374.84;5032399;28;20204;-77
2022/01/20 10:57:52;;;;;;;12.33;4.70;;;;;;;-145.69;100.00;73368.88;5032305;28;20246;-77
2022/01/20 11:00:21;;;;;;;9.17;3.77;;;;;;;-145.69;100.00;73384.78;5032190;28;20200;-77
2022/01/20 11:02:55;;;;;;;20.37;6.40;;;;;;;-145.69;100.00;73384.78;5031789;28;20658;-77
2022/01/20 11:05:23;;;;;;;25.33;7.57;;;;;;;-145.69;100.00;73396.72;5032135;28;20655;-77
2022/01/20 11:07:51;;;;;;;33.00;7.80;;;;;;;-145.69;100.00;73384.78;5032087;28;20235;-77
2022/01/20 11:10:18;;;;;;;30.30;8.20;;;;;;;-145.69;100.00;73366.88;5031871;28;20663;-77
2022/01/20 11:12:45;;;;;;;17.07;4.73;;;;;;;-145.69;100.00;73348.97;5032057;28;20211;-77
2022/01/20 11:15:14;;;;;;;16.20;5.07;;;;;;;-145.69;100.00;73341.00;5031831;28;20204;-77
2022/01/20 11:17:41;;;;;;;10.73;3.27;;;;;;;-145.69;100.00;73348.97;5023598;28;20233;-77
2022/01/20 11:20:12;;;;;;;19.83;4.10;;;;;;;-145.69;100.00;73342.97;5012307;28;20197;-76
2022/01/20 11:22:50;;;;;;;16.27;4.60;;;;;;;-145.69;100.00;73341.00;5012597;28;20201;-77
2022/01/20 11:25:20;;;;;;;15.23;4.30;;;;;;;-145.69;100.00;73352.94;5012138;28;20300;-76
2022/01/20 11:27:47;;;;;;;11.90;4.67;;;;;;;-145.69;100.00;73362.88;5011939;28;20233;-76
2022/01/20 11:30:16;;;;;;;25.57;6.33;;;;;;;-145.69;100.00;73372.84;5012238;28;20235;-77
2022/01/20 11:32:45;;;;;;;14.17;4.30;;;;;;;-145.69;100.00;73378.81;5011989;28;20212;-76
2022/01/20 11:35:16;;;;;;;12.63;3.67;;;;;;;-145.69;100.00;73364.88;5011917;28;20201;-77
2022/01/20 11:37:55;;;;;;;12.80;3.63;;;;;;;-145.69;100.00;73348.97;5011929;28;20211;-77
2022/01/20 11:40:23;;;;;;;6.37;3.00;;;;;;;-145.69;100.00;73329.03;5011857;28;20211;-77
2022/01/20 11:42:57;;;;;;;15.63;3.80;;;;;;;-145.69;100.00;73315.13;5011861;28;20563;-77
2022/01/20 11:45:26;;;;;;;12.97;4.00;;;;;;;-145.69;100.00;73323.06;5011769;28;20212;-76
2022/01/20 11:47:52;;;;;;;12.03;2.70;;;;;;;-145.69;100.00;73325.06;5019110;28;20215;-77
2022/01/20 11:50:21;;;;;;;10.87;3.13;;;;;;;-145.69;100.00;73313.13;5031476;28;20200;-78
2022/01/20 11:52:48;;;;;;;12.47;2.90;;;;;;;-145.69;100.00;73327.06;5031182;28;20215;-77
2022/01/20 11:55:17;;;;;;;14.17;3.20;;;;;;;-145.69;100.00;73313.13;5031396;28;20208;-77
2022/01/20 11:57:44;;;;;;;12.73;2.80;;;;;;;-145.69;100.00;73329.03;5031377;28;20223;-76
2022/01/20 12:00:23;;;;;;;11.80;3.03;;;;;;;-145.69;100.00;73350.94;5031174;28;20200;-77
2022/01/20 12:02:51;;;;;;;10.80;2.67;;;;;;;-145.69;100.00;73356.91;5031305;28;20196;-77
2022/01/20 12:05:26;;;;;;;6.23;2.87;;;;;;;-145.69;100.00;73325.06;5030968;28;20666;-77
2022/01/20 12:07:53;;;;;;;15.30;3.50;;;;;;;-145.69;100.00;73348.97;5030962;28;20203;-76